createdAt,value
2018-12-10T00:00:43.634Z,303.25
2018-12-10T00:01:43.587Z,303.05
2018-12-10T00:02:43.534Z,303.86
2018-12-10T00:03:43.529Z,303.51
2018-12-10T00:04:43.502Z,303.89
2018-12-10T00:05:43.552Z,303.35
2018-12-10T00:06:43.480Z,303.40
2018-12-10T00:07:43.558Z,303.45
2018-12-10T00:08:43.470Z,303.51
2018-12-10T00:09:43.465Z,303.60
2018-12-10T00:10:43.429Z,303.00
2018-12-10T00:11:43.485Z,302.75
2018-12-10T00:12:43.437Z,303.41
2018-12-10T00:13:43.451Z,303.27
2018-12-10T00:14:43.462Z,303.35
2018-12-10T00:15:43.383Z,303.26
2018-12-10T00:16:43.372Z,303.37
2018-12-10T00:17:43.363Z,303.07
2018-12-10T00:18:43.370Z,304.02
2018-12-10T00:19:43.324Z,303.19
2018-12-10T00:20:43.321Z,303.49
2018-12-10T00:21:43.281Z,303.49
2018-12-10T00:22:43.308Z,303.08
2018-12-10T00:23:43.310Z,303.61
2018-12-10T00:24:43.295Z,303.10
2018-12-10T00:25:43.300Z,303.98
2018-12-10T00:26:43.278Z,303.57
2018-12-10T00:27:43.236Z,302.86
2018-12-10T00:28:43.286Z,303.39
2018-12-10T00:29:43.208Z,303.32
2018-12-10T00:30:43.208Z,303.60
2018-12-10T00:31:43.286Z,303.07
2018-12-10T00:32:43.264Z,302.70
2018-12-10T00:33:43.172Z,303.18
2018-12-10T00:34:43.169Z,303.01
2018-12-10T00:35:43.149Z,303.48
2018-12-10T00:36:43.174Z,303.39
2018-12-10T00:37:43.139Z,302.84
2018-12-10T00:38:43.130Z,303.37
2018-12-10T00:39:43.127Z,302.69
2018-12-10T00:40:43.190Z,303.46
2018-12-10T00:41:43.085Z,303.32
2018-12-10T00:42:43.067Z,302.71
2018-12-10T00:43:43.055Z,303.11
2018-12-10T00:44:43.050Z,302.98
2018-12-10T00:45:43.076Z,302.63
2018-12-10T00:46:43.046Z,302.74
2018-12-10T00:47:43.057Z,303.21
2018-12-10T00:48:43.030Z,302.77
2018-12-10T00:49:42.993Z,302.93
2018-12-10T00:50:42.981Z,302.84
2018-12-10T00:51:42.982Z,302.73
2018-12-10T00:52:42.964Z,302.93
2018-12-10T00:53:42.968Z,302.98
2018-12-10T00:54:42.957Z,303.06
2018-12-10T00:55:42.939Z,302.84
2018-12-10T00:56:42.929Z,302.57
2018-12-10T00:57:42.940Z,302.95
2018-12-10T00:58:42.921Z,302.98
2018-12-10T00:59:42.879Z,303.06
2018-12-10T01:00:42.901Z,303.20
2018-12-10T01:01:42.880Z,303.05
2018-12-10T01:02:42.909Z,303.22
2018-12-10T01:03:42.836Z,303.02
2018-12-10T01:04:42.842Z,303.02
2018-12-10T01:05:42.839Z,303.35
2018-12-10T01:06:42.858Z,303.39
2018-12-10T01:07:42.801Z,302.66
2018-12-10T01:08:42.841Z,303.46
2018-12-10T01:09:42.798Z,303.22
2018-12-10T01:10:51.815Z,303.22
2018-12-10T01:11:42.784Z,303.63
2018-12-10T01:12:51.840Z,303.30
2018-12-10T01:13:42.748Z,303.29
2018-12-10T01:14:42.742Z,303.30
2018-12-10T01:15:42.751Z,302.80
2018-12-10T01:16:42.685Z,302.43
2018-12-10T01:17:42.690Z,302.76
2018-12-10T01:18:42.675Z,302.77
2018-12-10T01:19:42.668Z,303.23
2018-12-10T01:20:42.683Z,303.53
2018-12-10T01:23:00.062Z,300.61
2018-12-10T01:24:00.029Z,303.08
2018-12-10T01:25:00.013Z,303.14
2018-12-10T01:26:00.019Z,303.08
2018-12-10T01:27:00.045Z,302.92
2018-12-10T01:28:00.018Z,302.94
2018-12-10T01:28:59.996Z,303.06
2018-12-10T01:30:00.022Z,302.49
2018-12-10T01:30:59.994Z,302.78
2018-12-10T01:31:59.945Z,303.61
2018-12-10T01:32:59.957Z,303.99
2018-12-10T01:33:59.930Z,303.80
2018-12-10T01:34:59.930Z,303.55
2018-12-10T01:36:00.075Z,303.48
2018-12-10T01:36:59.901Z,303.25
2018-12-10T01:37:59.896Z,302.89
2018-12-10T01:38:59.890Z,303.01
2018-12-10T01:39:59.918Z,303.05
2018-12-10T01:40:59.917Z,302.65
2018-12-10T01:41:59.856Z,303.41
2018-12-10T01:42:59.856Z,303.36
2018-12-10T01:43:59.841Z,303.09
2018-12-10T01:44:59.831Z,303.23
2018-12-10T01:45:59.801Z,303.97
2018-12-10T01:46:59.780Z,303.44
2018-12-10T01:47:59.799Z,303.38
2018-12-10T01:48:59.770Z,303.84
2018-12-10T01:49:59.800Z,303.51
2018-12-10T01:50:59.779Z,303.07
2018-12-10T01:51:59.747Z,303.35
2018-12-10T01:52:59.740Z,303.80
2018-12-10T01:53:59.750Z,303.08
2018-12-10T01:54:59.705Z,303.33
2018-12-10T01:55:59.731Z,303.88
2018-12-10T01:56:59.678Z,303.67
2018-12-10T01:57:59.680Z,303.19
2018-12-10T01:58:59.667Z,303.46
2018-12-10T01:59:59.665Z,304.05
2018-12-10T02:00:59.663Z,304.15
2018-12-10T02:01:59.654Z,304.05
2018-12-10T02:02:59.662Z,303.82
2018-12-10T02:03:59.619Z,303.31
2018-12-10T02:04:59.592Z,302.97
2018-12-10T02:05:59.597Z,303.62
2018-12-10T02:06:59.604Z,303.59
2018-12-10T02:07:59.576Z,303.92
2018-12-10T02:08:59.562Z,304.20
2018-12-10T02:09:59.580Z,304.15
2018-12-10T02:10:59.535Z,303.82
2018-12-10T02:11:59.592Z,304.03
2018-12-10T02:12:59.551Z,304.01
2018-12-10T02:13:59.517Z,303.97
2018-12-10T02:14:59.494Z,304.15
2018-12-10T02:15:59.511Z,303.72
2018-12-10T02:16:59.510Z,303.91
2018-12-10T02:17:59.469Z,304.58
2018-12-10T02:18:59.470Z,303.83
2018-12-10T02:19:59.456Z,304.05
2018-12-10T02:20:59.443Z,303.38
2018-12-10T02:21:59.410Z,303.74
2018-12-10T02:22:59.402Z,304.15
2018-12-10T02:23:59.414Z,304.25
2018-12-10T02:24:59.396Z,303.60
2018-12-10T02:25:59.375Z,304.12
2018-12-10T02:26:59.394Z,303.65
2018-12-10T02:27:59.371Z,304.79
2018-12-10T02:28:59.381Z,304.50
2018-12-10T02:29:59.422Z,304.26
2018-12-10T02:30:59.335Z,304.18
2018-12-10T02:31:59.329Z,304.18
2018-12-10T02:32:59.333Z,305.01
2018-12-10T02:33:59.294Z,304.91
2018-12-10T02:34:59.330Z,304.03
2018-12-10T02:35:59.280Z,304.72
2018-12-10T02:36:59.260Z,304.43
2018-12-10T02:37:59.253Z,303.69
2018-12-10T02:38:59.264Z,304.46
2018-12-10T02:39:59.215Z,304.89
2018-12-10T02:40:59.222Z,304.10
2018-12-10T02:41:59.217Z,304.02
2018-12-10T02:42:59.192Z,303.88
2018-12-10T02:43:59.194Z,303.89
2018-12-10T02:44:59.196Z,303.94
2018-12-10T02:45:59.208Z,304.13
2018-12-10T02:46:59.156Z,303.68
2018-12-10T02:47:59.172Z,303.50
2018-12-10T02:48:59.145Z,304.41
2018-12-10T02:49:59.177Z,304.20
2018-12-10T02:50:59.112Z,303.72
2018-12-10T02:51:59.128Z,303.40
2018-12-10T02:52:59.093Z,303.51
2018-12-10T02:53:59.104Z,303.51
2018-12-10T02:54:59.084Z,303.60
2018-12-10T02:55:59.101Z,303.83
2018-12-10T02:56:59.059Z,303.43
2018-12-10T02:57:59.059Z,303.84
2018-12-10T02:58:59.032Z,303.25
2018-12-10T02:59:59.043Z,303.77
2018-12-10T03:00:59.019Z,303.07
2018-12-10T03:01:59.035Z,304.07
2018-12-10T03:02:59.016Z,303.99
2018-12-10T03:03:58.992Z,303.36
2018-12-10T03:04:58.971Z,303.43
2018-12-10T03:05:58.973Z,303.74
2018-12-10T03:06:58.980Z,303.97
2018-12-10T03:07:58.979Z,303.43
2018-12-10T03:08:58.920Z,303.71
2018-12-10T03:09:58.932Z,304.54
2018-12-10T03:10:59.059Z,303.39
2018-12-10T03:11:58.910Z,303.88
2018-12-10T03:12:58.878Z,303.65
2018-12-10T03:13:58.873Z,304.19
2018-12-10T03:14:58.893Z,304.10
2018-12-10T03:15:58.862Z,303.63
2018-12-10T03:16:58.860Z,303.87
2018-12-10T03:17:58.825Z,303.90
2018-12-10T03:18:58.910Z,304.12
2018-12-10T03:19:58.796Z,304.43
2018-12-10T03:20:58.816Z,304.56
2018-12-10T03:21:58.820Z,304.03
2018-12-10T03:22:58.831Z,304.00
2018-12-10T03:23:58.754Z,303.15
2018-12-10T03:24:58.751Z,303.81
2018-12-10T03:25:58.745Z,303.21
2018-12-10T03:26:58.772Z,304.12
2018-12-10T03:27:58.762Z,303.78
2018-12-10T03:28:58.780Z,303.10
2018-12-10T03:29:58.731Z,303.73
2018-12-10T03:30:58.705Z,303.01
2018-12-10T03:31:58.799Z,304.00
2018-12-10T03:32:58.694Z,303.87
2018-12-10T03:33:58.719Z,304.15
2018-12-10T03:34:58.653Z,304.06
2018-12-10T03:35:58.631Z,303.55
2018-12-10T03:36:58.627Z,303.72
2018-12-10T03:37:58.779Z,303.85
2018-12-10T03:38:58.589Z,303.70
2018-12-10T03:39:58.614Z,303.51
2018-12-10T03:40:58.585Z,303.70
2018-12-10T03:41:58.591Z,303.65
2018-12-10T03:42:58.573Z,303.96
2018-12-10T03:43:58.549Z,303.73
2018-12-10T03:44:58.550Z,303.96
2018-12-10T03:45:58.629Z,303.44
2018-12-10T03:46:58.567Z,303.53
2018-12-10T03:47:58.598Z,303.43
2018-12-10T03:48:59.414Z,304.16
2018-12-10T03:49:58.589Z,303.59
2018-12-10T03:51:02.459Z,302.50
2018-12-10T03:51:58.459Z,303.69
2018-12-10T03:52:58.462Z,303.62
2018-12-10T03:53:58.443Z,303.62
2018-12-10T03:54:58.474Z,303.47
2018-12-10T03:55:58.412Z,303.61
2018-12-10T03:56:58.474Z,303.34
2018-12-10T03:57:58.403Z,302.64
2018-12-10T03:58:58.938Z,303.10
2018-12-10T03:59:58.411Z,303.51
2018-12-10T04:00:58.440Z,303.81
2018-12-10T04:01:58.417Z,303.30
2018-12-10T04:02:58.340Z,303.51
2018-12-10T04:03:58.331Z,303.63
2018-12-10T04:04:58.942Z,304.03
2018-12-10T04:05:58.313Z,303.95
2018-12-10T04:06:58.318Z,304.42
2018-12-10T04:07:59.351Z,304.17
2018-12-10T04:08:58.268Z,303.45
2018-12-10T04:09:58.277Z,303.75
2018-12-10T04:10:58.285Z,304.22
2018-12-10T04:11:58.279Z,303.50
2018-12-10T04:12:58.293Z,303.71
2018-12-10T04:13:58.214Z,303.71
2018-12-10T04:14:58.229Z,303.25
2018-12-10T04:15:58.196Z,303.49
2018-12-10T04:16:58.218Z,304.41
2018-12-10T04:17:58.234Z,304.50
2018-12-10T04:18:58.199Z,303.92
2018-12-10T04:19:58.156Z,303.77
2018-12-10T04:20:58.155Z,304.62
2018-12-10T04:21:58.203Z,303.35
2018-12-10T04:22:58.146Z,303.18
2018-12-10T04:23:58.132Z,303.51
2018-12-10T04:24:58.107Z,303.42
2018-12-10T04:25:58.138Z,303.79
2018-12-10T04:26:58.086Z,304.44
2018-12-10T04:27:58.089Z,304.32
2018-12-10T04:28:58.103Z,303.41
2018-12-10T04:29:58.058Z,304.01
2018-12-10T04:30:58.073Z,303.56
2018-12-10T04:31:58.045Z,303.83
2018-12-10T04:32:58.070Z,303.98
2018-12-10T04:33:58.020Z,304.00
2018-12-10T04:34:57.996Z,303.87
2018-12-10T04:35:58.215Z,303.34
2018-12-10T04:36:58.106Z,304.19
2018-12-10T04:37:57.973Z,303.80
2018-12-10T04:38:57.973Z,304.01
2018-12-10T04:39:58.000Z,304.66
2018-12-10T04:40:57.942Z,304.51
2018-12-10T04:41:57.936Z,303.49
2018-12-10T04:42:57.929Z,304.12
2018-12-10T04:44:06.963Z,303.58
2018-12-10T04:44:57.890Z,303.99
2018-12-10T04:45:57.870Z,304.36
2018-12-10T04:46:57.890Z,304.00
2018-12-10T04:47:57.852Z,303.76
2018-12-10T04:48:57.837Z,304.35
2018-12-10T04:49:57.846Z,304.04
2018-12-10T04:51:07.988Z,304.61
2018-12-10T04:51:57.840Z,303.97
2018-12-10T04:53:07.015Z,303.73
2018-12-10T04:54:07.084Z,303.82
2018-12-10T04:54:57.780Z,303.47
2018-12-10T04:55:57.767Z,303.61
2018-12-10T04:56:57.744Z,304.12
2018-12-10T04:57:57.760Z,304.01
2018-12-10T04:58:57.745Z,304.38
2018-12-10T05:00:08.426Z,303.76
2018-12-10T05:00:57.703Z,304.28
2018-12-10T05:01:57.706Z,304.59
2018-12-10T05:02:57.739Z,303.09
2018-12-10T05:03:57.696Z,303.61
2018-12-10T05:04:57.710Z,304.02
2018-12-10T05:05:57.652Z,304.01
2018-12-10T05:06:57.644Z,304.65
2018-12-10T05:07:57.632Z,303.54
2018-12-10T05:08:57.658Z,303.89
2018-12-10T05:09:57.617Z,304.43
2018-12-10T05:10:57.612Z,304.34
2018-12-10T05:12:07.094Z,305.65
2018-12-10T05:13:06.659Z,303.87
2018-12-10T05:14:06.184Z,304.31
2018-12-10T05:14:57.571Z,304.04
2018-12-10T05:16:09.199Z,304.12
2018-12-10T05:17:06.783Z,304.80
2018-12-10T05:18:06.812Z,304.24
2018-12-10T05:19:06.309Z,304.35
2018-12-10T05:21:14.922Z,301.43
2018-12-10T05:22:14.907Z,303.91
2018-12-10T05:23:24.312Z,303.87
2018-12-10T05:24:14.955Z,303.66
2018-12-10T05:25:14.889Z,304.05
2018-12-10T05:26:14.850Z,303.75
2018-12-10T05:27:14.884Z,303.84
2018-12-10T05:28:14.850Z,304.22
2018-12-10T05:29:14.827Z,304.26
2018-12-10T05:30:14.871Z,303.75
2018-12-10T05:31:14.813Z,304.53
2018-12-10T05:32:14.820Z,304.58
2018-12-10T05:33:14.782Z,304.06
2018-12-10T05:34:14.790Z,304.67
2018-12-10T05:35:14.759Z,303.86
2018-12-10T05:36:14.798Z,305.72
2018-12-10T05:37:14.744Z,304.42
2018-12-10T05:38:14.727Z,304.25
2018-12-10T05:39:24.842Z,304.30
2018-12-10T05:40:23.877Z,303.95
2018-12-10T05:42:32.115Z,301.68
2018-12-10T05:43:41.514Z,304.56
2018-12-10T05:44:32.106Z,304.20
2018-12-10T05:45:32.080Z,304.41
2018-12-10T05:46:32.087Z,303.65
2018-12-10T05:47:32.078Z,304.11
2018-12-10T05:48:32.030Z,303.66
2018-12-10T05:49:32.031Z,304.42
2018-12-10T05:50:32.052Z,304.51
2018-12-10T05:51:32.093Z,305.16
2018-12-10T05:52:41.042Z,304.16
2018-12-10T05:53:31.983Z,304.35
2018-12-10T05:54:31.981Z,304.85
2018-12-10T05:55:32.002Z,304.35
2018-12-10T05:56:32.024Z,304.31
2018-12-10T05:57:31.972Z,303.99
2018-12-10T05:58:31.974Z,304.63
2018-12-10T05:59:31.960Z,303.60
2018-12-10T06:00:31.924Z,303.70
2018-12-10T06:01:31.900Z,304.22
2018-12-10T06:02:31.920Z,304.82
2018-12-10T06:03:31.920Z,304.59
2018-12-10T06:04:31.895Z,304.63
2018-12-10T06:05:31.867Z,305.17
2018-12-10T06:06:31.862Z,305.72
2018-12-10T06:07:31.851Z,304.46
2018-12-10T06:08:31.827Z,304.80
2018-12-10T06:09:31.842Z,304.71
2018-12-10T06:10:31.841Z,304.74
2018-12-10T06:11:31.806Z,304.58
2018-12-10T06:12:31.796Z,303.96
2018-12-10T06:13:31.797Z,304.18
2018-12-10T06:14:31.779Z,304.86
2018-12-10T06:15:31.814Z,304.59
2018-12-10T06:16:31.812Z,304.89
2018-12-10T06:17:31.744Z,304.41
2018-12-10T06:18:31.905Z,304.07
2018-12-10T06:19:31.742Z,304.20
2018-12-10T06:20:31.731Z,304.16
2018-12-10T06:21:31.709Z,304.24
2018-12-10T06:22:31.691Z,304.36
2018-12-10T06:23:31.732Z,304.60
2018-12-10T06:24:32.483Z,304.43
2018-12-10T06:25:31.976Z,304.98
2018-12-10T06:26:31.724Z,304.35
2018-12-10T06:27:31.719Z,304.02
2018-12-10T06:28:31.683Z,304.67
2018-12-10T06:29:31.915Z,304.36
2018-12-10T06:30:31.757Z,304.98
2018-12-10T06:31:31.736Z,304.40
2018-12-10T06:32:31.965Z,304.25
2018-12-10T06:33:31.725Z,304.18
2018-12-10T06:34:31.741Z,303.92
2018-12-10T06:35:31.760Z,304.23
2018-12-10T06:36:31.589Z,304.01
2018-12-10T06:37:37.510Z,303.99
2018-12-10T06:38:32.618Z,304.93
2018-12-10T06:39:31.557Z,303.95
2018-12-10T06:40:31.552Z,304.75
2018-12-10T06:41:31.597Z,303.91
2018-12-10T06:42:31.568Z,304.58
2018-12-10T06:43:31.495Z,304.78
2018-12-10T06:44:31.501Z,304.22
2018-12-10T06:45:32.487Z,304.62
2018-12-10T06:46:31.454Z,304.33
2018-12-10T06:47:31.456Z,304.21
2018-12-10T06:48:31.487Z,304.45
2018-12-10T06:49:31.489Z,304.81
2018-12-10T06:50:31.451Z,304.24
2018-12-10T06:51:31.435Z,304.94
2018-12-10T06:52:31.492Z,304.77
2018-12-10T06:53:31.396Z,304.20
2018-12-10T06:54:31.377Z,304.12
2018-12-10T06:55:31.374Z,305.17
2018-12-10T06:56:31.501Z,304.44
2018-12-10T06:57:31.569Z,305.08
2018-12-10T06:58:31.391Z,305.70
2018-12-10T06:59:31.396Z,304.38
2018-12-10T07:00:31.436Z,304.72
2018-12-10T07:01:31.313Z,304.33
2018-12-10T07:02:31.309Z,305.70
2018-12-10T07:03:31.306Z,305.22
2018-12-10T07:04:31.312Z,304.64
2018-12-10T07:05:31.255Z,305.07
2018-12-10T07:06:31.280Z,304.96
2018-12-10T07:07:31.237Z,304.81
2018-12-10T07:08:31.220Z,304.63
2018-12-10T07:09:31.226Z,304.25
2018-12-10T07:10:31.234Z,304.37
2018-12-10T07:11:31.192Z,304.61
2018-12-10T07:12:31.263Z,305.63
2018-12-10T07:13:31.210Z,304.65
2018-12-10T07:14:31.189Z,305.69
2018-12-10T07:15:31.173Z,304.80
2018-12-10T07:16:31.174Z,304.74
2018-12-10T07:17:31.134Z,305.51
2018-12-10T07:18:31.142Z,305.05
2018-12-10T07:19:31.114Z,305.07
2018-12-10T07:20:31.160Z,304.95
2018-12-10T07:21:31.113Z,304.37
2018-12-10T07:22:31.097Z,304.99
2018-12-10T07:23:31.069Z,305.33
2018-12-10T07:24:31.076Z,306.06
2018-12-10T07:25:31.059Z,305.57
2018-12-10T07:26:31.040Z,304.82
2018-12-10T07:27:31.079Z,305.82
2018-12-10T07:28:31.011Z,304.62
2018-12-10T07:29:31.022Z,305.01
2018-12-10T07:30:31.014Z,306.02
2018-12-10T07:31:30.988Z,306.20
2018-12-10T07:32:31.023Z,305.15
2018-12-10T07:33:30.972Z,304.99
2018-12-10T07:34:30.969Z,304.88
2018-12-10T07:35:30.967Z,305.36
2018-12-10T07:36:31.061Z,304.23
2018-12-10T07:37:30.981Z,304.54
2018-12-10T07:38:30.938Z,305.18
2018-12-10T07:39:30.943Z,305.33
2018-12-10T07:40:30.878Z,305.62
2018-12-10T07:41:30.933Z,305.43
2018-12-10T07:42:30.902Z,305.85
2018-12-10T07:43:30.879Z,305.42
2018-12-10T07:44:30.923Z,305.31
2018-12-10T07:45:30.879Z,304.21
2018-12-10T07:46:30.933Z,305.23
2018-12-10T07:47:30.839Z,305.13
2018-12-10T07:48:30.911Z,305.35
2018-12-10T07:49:30.798Z,305.50
2018-12-10T07:50:31.332Z,306.80
2018-12-10T07:51:30.804Z,304.68
2018-12-10T07:52:30.865Z,305.62
2018-12-10T07:53:30.776Z,305.67
2018-12-10T07:54:30.745Z,305.48
2018-12-10T07:55:30.912Z,304.98
2018-12-10T07:56:30.757Z,305.51
2018-12-10T07:57:30.705Z,305.06
2018-12-10T07:58:30.733Z,304.45
2018-12-10T07:59:30.751Z,304.18
2018-12-10T08:00:30.702Z,304.28
2018-12-10T08:01:30.763Z,304.26
2018-12-10T08:02:30.813Z,304.44
2018-12-10T08:03:30.652Z,306.02
2018-12-10T08:04:30.649Z,305.60
2018-12-10T08:05:30.659Z,305.10
2018-12-10T08:06:30.607Z,305.38
2018-12-10T08:07:30.639Z,305.66
2018-12-10T08:08:30.707Z,306.34
2018-12-10T08:09:30.604Z,303.79
2018-12-10T08:10:30.592Z,303.81
2018-12-10T08:11:30.621Z,305.01
2018-12-10T08:12:30.586Z,304.40
2018-12-10T08:13:30.572Z,304.75
2018-12-10T08:14:30.587Z,304.21
2018-12-10T08:15:30.531Z,304.04
2018-12-10T08:16:30.548Z,304.41
2018-12-10T08:17:30.597Z,305.01
2018-12-10T08:18:30.560Z,304.56
2018-12-10T08:19:30.536Z,304.64
2018-12-10T08:20:30.533Z,304.09
2018-12-10T08:21:30.452Z,303.83
2018-12-10T08:22:30.465Z,303.74
2018-12-10T08:23:30.545Z,303.92
2018-12-10T08:24:30.466Z,304.32
2018-12-10T08:25:30.419Z,304.50
2018-12-10T08:26:30.441Z,304.39
2018-12-10T08:27:30.474Z,303.88
2018-12-10T08:28:30.399Z,303.28
2018-12-10T08:29:30.420Z,303.83
2018-12-10T08:30:30.411Z,303.38
2018-12-10T08:31:30.470Z,304.24
2018-12-10T08:32:30.342Z,304.18
2018-12-10T08:33:30.390Z,303.67
2018-12-10T08:34:30.354Z,304.47
2018-12-10T08:35:30.430Z,304.65
2018-12-10T08:36:30.341Z,303.59
2018-12-10T08:37:30.291Z,304.07
2018-12-10T08:38:30.306Z,304.37
2018-12-10T08:39:30.269Z,303.87
2018-12-10T08:40:30.264Z,304.29
2018-12-10T08:41:30.381Z,304.90
2018-12-10T08:42:30.282Z,305.14
2018-12-10T08:43:30.282Z,304.58
2018-12-10T08:44:30.278Z,305.10
2018-12-10T08:45:30.209Z,303.94
2018-12-10T08:46:30.231Z,304.44
2018-12-10T08:47:30.249Z,303.29
2018-12-10T08:48:30.219Z,304.40
2018-12-10T08:49:30.207Z,303.74
2018-12-10T08:50:30.161Z,303.68
2018-12-10T08:51:30.153Z,304.01
2018-12-10T08:52:30.147Z,304.24
2018-12-10T08:53:30.148Z,304.96
2018-12-10T08:54:30.195Z,304.89
2018-12-10T08:55:30.209Z,304.97
2018-12-10T08:56:30.087Z,305.08
2018-12-10T08:57:30.136Z,304.59
2018-12-10T08:58:30.074Z,304.30
2018-12-10T08:59:30.113Z,303.76
2018-12-10T09:00:30.080Z,303.79
2018-12-10T09:01:30.078Z,304.42
2018-12-10T09:02:30.021Z,305.57
2018-12-10T09:03:30.061Z,304.99
2018-12-10T09:04:30.125Z,304.90
2018-12-10T09:05:30.978Z,304.46
2018-12-10T09:06:29.995Z,304.21
2018-12-10T09:07:29.975Z,304.63
2018-12-10T09:08:30.053Z,303.98
2018-12-10T09:09:29.980Z,304.50
2018-12-10T09:10:30.016Z,304.14
2018-12-10T09:11:30.063Z,304.21
2018-12-10T09:12:29.988Z,305.21
2018-12-10T09:13:29.934Z,304.40
2018-12-10T09:14:29.921Z,303.83
2018-12-10T09:15:29.954Z,304.83
2018-12-10T09:16:29.931Z,304.94
2018-12-10T09:17:30.009Z,304.13
2018-12-10T09:18:29.860Z,304.51
2018-12-10T09:19:29.883Z,304.60
2018-12-10T09:20:38.606Z,305.37
2018-12-10T09:21:39.597Z,305.45
2018-12-10T09:22:29.889Z,304.26
2018-12-10T09:23:29.827Z,303.99
2018-12-10T09:24:29.804Z,304.36
2018-12-10T09:25:29.798Z,304.12
2018-12-10T09:26:29.780Z,304.83
2018-12-10T09:27:29.817Z,304.29
2018-12-10T09:28:29.787Z,305.19
2018-12-10T09:29:29.782Z,305.25
2018-12-10T09:30:29.787Z,304.72
2018-12-10T09:31:29.738Z,304.84
2018-12-10T09:32:29.777Z,303.83
2018-12-10T09:33:29.783Z,305.79
2018-12-10T09:34:29.714Z,304.72
2018-12-10T09:35:29.719Z,304.07
2018-12-10T09:36:29.709Z,304.78
2018-12-10T09:37:29.723Z,304.23
2018-12-10T09:38:29.691Z,304.59
2018-12-10T09:39:30.288Z,305.45
2018-12-10T09:40:29.650Z,304.32
2018-12-10T09:41:29.634Z,303.85
2018-12-10T09:42:29.619Z,303.65
2018-12-10T09:43:29.645Z,304.64
2018-12-10T09:44:29.685Z,305.17
2018-12-10T09:45:29.623Z,304.42
2018-12-10T09:46:29.598Z,304.10
2018-12-10T09:47:29.602Z,303.23
2018-12-10T09:48:29.592Z,303.94
2018-12-10T09:49:29.554Z,303.47
2018-12-10T09:50:29.622Z,304.58
2018-12-10T09:51:29.526Z,303.75
2018-12-10T09:52:29.547Z,304.10
2018-12-10T09:53:29.504Z,303.59
2018-12-10T09:54:29.525Z,303.47
2018-12-10T09:55:29.570Z,303.68
2018-12-10T09:56:29.483Z,303.39
2018-12-10T09:57:29.472Z,304.12
2018-12-10T09:58:29.464Z,303.73
2018-12-10T09:59:29.451Z,303.98
2018-12-10T10:00:29.427Z,304.46
2018-12-10T10:01:29.516Z,304.51
2018-12-10T10:02:29.454Z,304.55
2018-12-10T10:03:29.437Z,304.33
2018-12-10T10:04:29.431Z,304.08
2018-12-10T10:05:29.406Z,304.09
2018-12-10T10:06:29.344Z,304.94
2018-12-10T10:07:29.363Z,304.74
2018-12-10T10:08:29.342Z,303.94
2018-12-10T10:09:29.351Z,304.04
2018-12-10T10:10:29.343Z,304.43
2018-12-10T10:11:29.339Z,304.34
2018-12-10T10:12:29.354Z,305.10
2018-12-10T10:13:29.426Z,303.51
2018-12-10T10:14:29.295Z,304.00
2018-12-10T10:15:29.302Z,303.44
2018-12-10T10:16:29.293Z,304.09
2018-12-10T10:17:29.238Z,304.84
2018-12-10T10:18:29.226Z,304.46
2018-12-10T10:19:29.234Z,304.69
2018-12-10T10:20:29.217Z,305.10
2018-12-10T10:21:29.193Z,304.66
2018-12-10T10:22:29.190Z,304.26
2018-12-10T10:23:29.179Z,304.28
2018-12-10T10:24:29.183Z,305.14
2018-12-10T10:25:29.161Z,304.34
2018-12-10T10:26:29.149Z,304.70
2018-12-10T10:27:29.124Z,304.35
2018-12-10T10:28:29.145Z,304.22
2018-12-10T10:29:29.125Z,304.43
2018-12-10T10:30:29.118Z,304.05
2018-12-10T10:31:29.086Z,304.13
2018-12-10T10:32:29.084Z,304.42
2018-12-10T10:33:32.494Z,303.87
2018-12-10T10:34:29.059Z,303.85
2018-12-10T10:35:29.106Z,303.64
2018-12-10T10:36:29.080Z,303.75
2018-12-10T10:37:29.029Z,303.94
2018-12-10T10:38:29.021Z,303.42
2018-12-10T10:39:29.041Z,304.28
2018-12-10T10:40:29.034Z,304.33
2018-12-10T10:41:31.332Z,303.91
2018-12-10T10:42:28.974Z,304.02
2018-12-10T10:43:28.962Z,305.30
2018-12-10T10:44:28.984Z,304.55
2018-12-10T10:45:34.707Z,304.28
2018-12-10T10:46:29.997Z,303.76
2018-12-10T10:47:28.921Z,303.66
2018-12-10T10:48:28.912Z,303.73
2018-12-10T10:49:28.906Z,303.73
2018-12-10T10:50:28.895Z,303.63
2018-12-10T10:51:28.882Z,304.26
2018-12-10T10:52:33.160Z,305.78
2018-12-10T10:53:28.860Z,304.55
2018-12-10T10:54:29.078Z,304.99
2018-12-10T10:55:28.911Z,304.89
2018-12-10T10:56:28.961Z,304.25
2018-12-10T10:57:28.845Z,305.47
2018-12-10T10:58:28.831Z,305.03
2018-12-10T10:59:28.811Z,304.30
2018-12-10T11:00:28.821Z,304.53
2018-12-10T11:01:28.790Z,305.05
2018-12-10T11:02:28.755Z,303.81
2018-12-10T11:03:28.830Z,303.67
2018-12-10T11:04:37.085Z,304.34
2018-12-10T11:05:29.765Z,304.33
2018-12-10T11:06:28.743Z,303.86
2018-12-10T11:07:29.646Z,304.46
2018-12-10T11:08:28.733Z,304.42
2018-12-10T11:09:28.735Z,303.73
2018-12-10T11:10:28.701Z,304.24
2018-12-10T11:11:28.675Z,304.27
2018-12-10T11:12:28.679Z,302.97
2018-12-10T11:13:28.661Z,302.66
2018-12-10T11:14:28.630Z,302.84
2018-12-10T11:15:28.719Z,303.76
2018-12-10T11:16:28.635Z,303.62
2018-12-10T11:17:28.630Z,303.30
2018-12-10T11:18:28.662Z,303.28
2018-12-10T11:19:28.600Z,304.00
2018-12-10T11:20:28.624Z,303.69
2018-12-10T11:21:28.581Z,304.25
2018-12-10T11:22:28.554Z,303.72
2018-12-10T11:23:28.560Z,303.59
2018-12-10T11:24:28.557Z,303.56
2018-12-10T11:25:28.652Z,303.65
2018-12-10T11:26:28.590Z,304.23
2018-12-10T11:27:28.507Z,303.93
2018-12-10T11:28:28.482Z,304.38
2018-12-10T11:29:28.491Z,304.63
2018-12-10T11:30:28.550Z,304.02
2018-12-10T11:31:28.493Z,303.83
2018-12-10T11:32:28.461Z,304.71
2018-12-10T11:33:28.458Z,304.16
2018-12-10T11:34:28.430Z,304.47
2018-12-10T11:35:28.439Z,304.35
2018-12-10T11:36:28.408Z,302.90
2018-12-10T11:37:28.426Z,303.28
2018-12-10T11:38:28.462Z,304.39
2018-12-10T11:39:28.379Z,304.23
2018-12-10T11:40:28.404Z,304.51
2018-12-10T11:41:28.394Z,304.30
2018-12-10T11:42:28.360Z,303.75
2018-12-10T11:43:28.342Z,304.26
2018-12-10T11:44:28.331Z,304.42
2018-12-10T11:45:28.319Z,304.25
2018-12-10T11:46:28.372Z,304.14
2018-12-10T11:47:28.495Z,303.74
2018-12-10T11:48:28.308Z,304.42
2018-12-10T11:49:28.290Z,304.22
2018-12-10T11:50:28.261Z,304.20
2018-12-10T11:51:28.293Z,304.00
2018-12-10T11:52:28.239Z,305.29
2018-12-10T11:53:28.237Z,303.92
2018-12-10T11:54:28.260Z,304.20
2018-12-10T11:55:28.233Z,303.55
2018-12-10T11:56:28.247Z,304.33
2018-12-10T11:57:28.227Z,304.23
2018-12-10T11:58:28.191Z,305.37
2018-12-10T11:59:28.222Z,305.65
2018-12-10T12:00:29.608Z,306.11
2018-12-10T12:01:28.181Z,305.00
2018-12-10T12:02:29.842Z,305.40
2018-12-10T12:03:28.210Z,305.10
2018-12-10T12:04:28.140Z,304.56
2018-12-10T12:05:28.169Z,304.17
2018-12-10T12:06:28.114Z,304.65
2018-12-10T12:07:28.067Z,305.13
2018-12-10T12:08:28.084Z,303.77
2018-12-10T12:09:28.067Z,304.30
2018-12-10T12:10:28.076Z,303.36
2018-12-10T12:11:28.063Z,304.35
2018-12-10T12:12:28.064Z,303.95
2018-12-10T12:13:28.043Z,303.93
2018-12-10T12:14:28.010Z,304.26
2018-12-10T12:15:28.005Z,304.40
2018-12-10T12:16:27.992Z,303.05
2018-12-10T12:17:27.974Z,303.57
2018-12-10T12:18:28.019Z,303.72
2018-12-10T12:19:27.961Z,303.26
2018-12-10T12:20:28.853Z,304.08
2018-12-10T12:21:28.537Z,303.64
2018-12-10T12:22:28.372Z,303.66
2018-12-10T12:23:29.550Z,303.30
2018-12-10T12:24:27.960Z,303.34
2018-12-10T12:25:27.897Z,303.93
2018-12-10T12:26:27.906Z,303.91
2018-12-10T12:27:27.965Z,304.34
2018-12-10T12:28:27.875Z,304.21
2018-12-10T12:29:27.885Z,304.68
2018-12-10T12:30:27.852Z,304.31
2018-12-10T12:31:27.840Z,305.05
2018-12-10T12:32:27.840Z,305.43